Time;durP1;ratioP1;P1;durP2;ratioP2;P2;SDS_P1;SDS_P2;PMS_P1;PMS_P2;Temp;Humidity;BMP_temperature;BMP_pressure;BME280_temperature;BME280_humidity;BME280_pressure;Samples;Min_cycle;Max_cycle;Signal;HPM_P1;HPM_P2
2021/11/20 00:01:47;;;;;;;6.13;3.73;;;12.00;99.90;;;;;;5024538;28;20282;-72
2021/11/20 00:04:14;;;;;;;6.10;3.67;;;12.00;99.90;;;;;;5024610;28;20351;-72
2021/11/20 00:06:43;;;;;;;7.40;3.77;;;12.00;99.90;;;;;;5024586;28;20205;-73
2021/11/20 00:09:13;;;;;;;5.00;3.73;;;12.00;99.90;;;;;;5024876;28;20292;-72
2021/11/20 00:11:43;;;;;;;4.93;4.10;;;12.00;99.90;;;;;;5025261;28;20280;-72
2021/11/20 00:14:12;;;;;;;5.30;3.70;;;11.90;99.90;;;;;;5025845;28;20288;-72
2021/11/20 00:16:40;;;;;;;5.37;3.63;;;12.00;99.90;;;;;;5028665;28;20230;-72
2021/11/20 00:19:07;;;;;;;7.10;3.83;;;12.00;99.90;;;;;;5028444;28;20220;-72
2021/11/20 00:21:38;;;;;;;8.73;4.43;;;12.00;99.90;;;;;;5028616;28;20228;-72
2021/11/20 00:24:15;;;;;;;6.00;4.13;;;12.00;99.90;;;;;;5028257;28;20237;-73
2021/11/20 00:26:43;;;;;;;4.80;3.57;;;12.00;99.90;;;;;;5028345;28;20760;-72
2021/11/20 00:29:25;;;;;;;6.30;4.10;;;12.00;99.90;;;;;;5028370;28;20603;-72
2021/11/20 00:31:56;;;;;;;4.83;4.33;;;12.00;99.90;;;;;;5028194;28;20224;-72
2021/11/20 00:34:26;;;;;;;5.03;3.97;;;12.00;99.90;;;;;;5028825;28;20189;-72
2021/11/20 00:36:53;;;;;;;7.03;4.17;;;12.00;99.90;;;;;;5028216;28;20288;-72
2021/11/20 00:39:24;;;;;;;5.87;3.83;;;12.00;99.90;;;;;;5028667;28;20289;-72
2021/11/20 00:41:53;;;;;;;5.43;4.23;;;12.00;99.90;;;;;;5028305;28;20225;-72
2021/11/20 00:44:20;;;;;;;5.20;4.00;;;12.00;99.90;;;;;;5028279;28;20247;-74
2021/11/20 00:46:50;;;;;;;4.83;3.97;;;12.00;99.90;;;;;;5028045;28;20303;-74
2021/11/20 00:49:17;;;;;;;6.03;3.63;;;12.00;99.90;;;;;;5027855;28;20209;-74
2021/11/20 00:51:46;;;;;;;6.83;3.83;;;12.00;99.90;;;;;;5027967;28;20616;-74
2021/11/20 00:54:12;;;;;;;4.13;3.50;;;11.90;99.90;;;;;;5027449;28;20248;-75
2021/11/20 00:56:40;;;;;;;4.40;3.77;;;12.00;99.90;;;;;;5028376;28;20240;-74
2021/11/20 00:59:10;;;;;;;8.13;3.97;;;12.00;99.90;;;;;;5028024;28;20617;-74
2021/11/20 01:01:41;;;;;;;4.10;3.37;;;12.00;99.90;;;;;;5027492;28;20318;-72
2021/11/20 01:04:09;;;;;;;5.47;3.67;;;12.00;99.90;;;;;;5027234;28;20328;-73
2021/11/20 01:06:37;;;;;;;6.97;3.60;;;11.90;99.90;;;;;;5027948;28;20260;-72
2021/11/20 01:09:04;;;;;;;5.33;3.47;;;11.90;99.90;;;;;;5027680;28;20300;-71
2021/11/20 01:11:35;;;;;;;5.70;3.50;;;11.90;99.90;;;;;;5027395;28;20584;-71
2021/11/20 01:14:06;;;;;;;6.27;3.40;;;11.90;99.90;;;;;;5027237;28;20788;-71
2021/11/20 01:16:35;;;;;;;6.37;3.53;;;11.90;99.90;;;;;;5027674;28;20197;-71
2021/11/20 01:19:04;;;;;;;4.20;3.27;;;11.90;99.90;;;;;;5027396;28;20254;-70
2021/11/20 01:21:31;;;;;;;6.00;3.40;;;11.90;99.90;;;;;;5027573;28;20240;-71
2021/11/20 01:23:58;;;;;;;6.70;3.60;;;11.90;99.90;;;;;;5027344;28;20751;-71
2021/11/20 01:26:25;;;;;;;4.17;3.27;;;11.90;99.90;;;;;;5027019;28;20229;-71
2021/11/20 01:28:54;;;;;;;5.17;3.30;;;11.90;99.90;;;;;;5027140;28;20244;-70
2021/11/20 01:31:25;;;;;;;8.43;3.90;;;11.90;99.90;;;;;;5027542;28;20208;-71
2021/11/20 01:33:53;;;;;;;4.77;3.53;;;11.90;99.90;;;;;;5027102;28;20727;-71
2021/11/20 01:36:22;;;;;;;4.87;3.20;;;11.90;99.90;;;;;;5027144;27;20858;-71
2021/11/20 01:38:50;;;;;;;4.17;3.17;;;11.90;99.90;;;;;;5027206;28;20300;-70
2021/11/20 01:41:18;;;;;;;5.67;3.53;;;11.90;99.90;;;;;;5027426;28;20646;-71
2021/11/20 01:43:48;;;;;;;7.70;3.57;;;11.90;99.90;;;;;;5027135;28;20243;-71
2021/11/20 01:46:18;;;;;;;3.63;3.10;;;11.90;99.90;;;;;;5026847;28;20243;-71
2021/11/20 01:49:02;;;;;;;3.83;3.13;;;11.80;99.90;;;;;;5027121;28;20215;-73
2021/11/20 01:51:32;;;;;;;4.63;3.10;;;11.90;99.90;;;;;;5027090;28;20281;-73
2021/11/20 01:54:11;;;;;;;4.27;2.67;;;11.90;99.90;;;;;;5027016;28;20266;-73
2021/11/20 01:56:45;;;;;;;2.90;2.60;;;11.90;99.90;;;;;;5027402;28;20280;-73
2021/11/20 01:59:18;;;;;;;5.70;2.93;;;11.80;99.90;;;;;;5027025;28;20241;-73
2021/11/20 02:01:49;;;;;;;3.80;2.80;;;11.90;99.90;;;;;;5026762;28;20268;-73
2021/11/20 02:04:34;;;;;;;4.03;2.80;;;11.90;99.90;;;;;;5026709;28;20233;-73
2021/11/20 02:07:10;;;;;;;4.03;2.87;;;11.90;99.90;;;;;;5026589;28;20260;-73
2021/11/20 02:09:43;;;;;;;4.10;2.60;;;11.90;99.90;;;;;;5027086;28;20193;-73
2021/11/20 02:12:13;;;;;;;2.90;2.43;;;11.90;99.90;;;;;;5026982;28;20204;-73
2021/11/20 02:14:41;;;;;;;5.23;2.77;;;11.90;99.90;;;;;;5016273;28;20248;-73
2021/11/20 02:17:12;;;;;;;3.40;2.80;;;11.90;99.90;;;;;;5006621;28;20679;-74
2021/11/20 02:19:44;;;;;;;4.83;3.03;;;11.90;99.90;;;;;;5006795;28;20234;-74
2021/11/20 02:22:17;;;;;;;3.53;2.80;;;11.90;99.90;;;;;;5006873;28;20488;-74
2021/11/20 02:24:44;;;;;;;4.23;2.90;;;11.90;99.90;;;;;;5006439;28;20308;-73
2021/11/20 02:27:13;;;;;;;4.80;2.83;;;11.80;99.90;;;;;;5006301;28;20667;-73
2021/11/20 02:29:47;;;;;;;3.83;2.43;;;11.80;99.90;;;;;;5006584;28;20237;-73
2021/11/20 02:32:19;;;;;;;4.47;2.67;;;11.80;99.90;;;;;;5006634;28;20281;-73
2021/11/20 02:34:46;;;;;;;4.80;2.97;;;11.80;99.90;;;;;;5006362;28;20233;-73
2021/11/20 02:37:14;;;;;;;4.93;2.57;;;11.80;99.90;;;;;;5005521;28;20299;-73
2021/11/20 02:39:41;;;;;;;3.23;2.43;;;11.80;99.90;;;;;;5006796;28;20284;-73
2021/11/20 02:42:12;;;;;;;2.60;2.40;;;11.80;99.90;;;;;;5006331;28;20229;-73
2021/11/20 02:44:40;;;;;;;2.17;2.07;;;11.80;99.90;;;;;;5006639;28;20264;-73
2021/11/20 02:47:21;;;;;;;4.23;2.40;;;11.80;99.90;;;;;;5006679;28;20240;-73
2021/11/20 02:49:48;;;;;;;3.87;2.60;;;11.80;99.90;;;;;;5006705;28;20225;-73
2021/11/20 02:52:15;;;;;;;2.63;2.30;;;11.80;99.90;;;;;;5006159;28;20297;-73
2021/11/20 02:54:43;;;;;;;2.47;2.27;;;11.80;99.90;;;;;;5006437;28;20256;-73
2021/11/20 02:57:13;;;;;;;3.90;2.50;;;11.80;99.90;;;;;;5006303;28;20218;-73
2021/11/20 02:59:41;;;;;;;4.80;2.60;;;11.80;99.90;;;;;;5005919;28;20251;-74
2021/11/20 03:02:09;;;;;;;2.97;2.70;;;11.70;99.90;;;;;;5005217;28;20241;-75
2021/11/20 03:04:37;;;;;;;2.93;2.60;;;11.70;99.90;;;;;;5005411;28;20278;-75
2021/11/20 03:07:04;;;;;;;3.07;2.63;;;11.70;99.90;;;;;;5005342;28;20268;-75
2021/11/20 03:09:34;;;;;;;4.20;2.43;;;11.70;99.90;;;;;;5005648;28;20292;-76
2021/11/20 03:12:03;;;;;;;2.60;2.40;;;11.70;99.90;;;;;;5005239;28;20754;-75
2021/11/20 03:14:31;;;;;;;4.90;2.47;;;11.60;99.90;;;;;;5005159;28;20218;-73
2021/11/20 03:17:00;;;;;;;4.03;2.43;;;11.60;99.90;;;;;;5005107;28;20228;-73
2021/11/20 03:19:31;;;;;;;4.53;2.73;;;11.60;99.90;;;;;;5005028;28;20300;-74
2021/11/20 03:22:02;;;;;;;3.70;2.67;;;11.60;99.90;;;;;;5005562;28;20214;-74
2021/11/20 03:24:31;;;;;;;5.23;2.73;;;11.50;99.90;;;;;;5005259;28;20943;-74
2021/11/20 03:26:59;;;;;;;4.27;2.57;;;11.50;99.90;;;;;;5005400;28;20209;-74
2021/11/20 03:29:26;;;;;;;3.03;2.77;;;11.50;99.90;;;;;;5005422;28;20420;-74
2021/11/20 03:31:54;;;;;;;6.20;2.67;;;11.50;99.90;;;;;;5005287;28;20241;-72
2021/11/20 03:34:22;;;;;;;3.83;2.40;;;11.50;99.90;;;;;;5005272;28;20243;-73
2021/11/20 03:36:50;;;;;;;3.93;2.80;;;11.50;99.90;;;;;;5005029;28;20253;-73
2021/11/20 03:39:18;;;;;;;2.53;2.33;;;11.40;99.90;;;;;;5004911;28;20262;-73
2021/11/20 03:41:46;;;;;;;2.50;2.30;;;11.40;99.90;;;;;;5004834;28;20256;-73
2021/11/20 03:44:14;;;;;;;3.93;2.67;;;11.40;99.90;;;;;;5004509;28;20275;-73
2021/11/20 03:46:42;;;;;;;2.63;2.43;;;11.40;99.90;;;;;;5004565;28;20301;-73
2021/11/20 03:49:10;;;;;;;3.00;2.80;;;11.40;99.90;;;;;;5003388;28;20249;-72
2021/11/20 03:51:37;;;;;;;2.97;2.53;;;11.40;99.90;;;;;;5004800;28;20699;-73
2021/11/20 03:54:05;;;;;;;4.30;2.70;;;11.40;99.90;;;;;;5004877;28;20220;-73
2021/11/20 03:56:34;;;;;;;3.80;2.83;;;11.30;99.90;;;;;;5004429;28;20297;-73
2021/11/20 03:59:02;;;;;;;3.33;2.93;;;11.30;99.90;;;;;;5004611;28;20674;-73
2021/11/20 04:01:30;;;;;;;5.73;2.67;;;11.30;99.90;;;;;;4966774;28;1097239;-73
2021/11/20 04:03:58;;;;;;;4.33;2.90;;;11.30;99.90;;;;;;5004854;28;20225;-73
2021/11/20 04:06:25;;;;;;;4.30;3.03;;;11.30;99.90;;;;;;5005217;28;20862;-73
2021/11/20 04:08:53;;;;;;;2.93;2.70;;;11.30;99.90;;;;;;5005190;28;20691;-73
2021/11/20 04:11:23;;;;;;;3.40;2.70;;;11.30;99.90;;;;;;5005615;28;20300;-72
2021/11/20 04:13:52;;;;;;;3.50;3.10;;;11.30;99.90;;;;;;5005246;28;20198;-73
2021/11/20 04:16:21;;;;;;;3.83;2.80;;;11.30;99.90;;;;;;5005285;28;20301;-72
2021/11/20 04:18:49;;;;;;;5.90;2.83;;;11.20;99.90;;;;;;5004970;28;20582;-72
2021/11/20 04:21:17;;;;;;;4.17;2.73;;;11.20;99.90;;;;;;5005173;28;20322;-72
2021/11/20 04:23:46;;;;;;;7.33;3.07;;;11.20;99.90;;;;;;5005317;28;20206;-72
2021/11/20 04:26:14;;;;;;;5.27;3.20;;;11.20;99.90;;;;;;5005038;28;20355;-72
2021/11/20 04:28:41;;;;;;;5.53;3.10;;;11.20;99.90;;;;;;5005147;28;20238;-73
2021/11/20 04:31:10;;;;;;;3.27;2.97;;;11.20;99.90;;;;;;5004932;28;20245;-72
2021/11/20 04:33:38;;;;;;;3.93;3.07;;;11.10;99.90;;;;;;5005206;28;20254;-72
2021/11/20 04:36:06;;;;;;;3.60;2.87;;;11.10;99.90;;;;;;5005099;28;20217;-71
2021/11/20 04:38:34;;;;;;;7.30;2.90;;;11.10;99.90;;;;;;5004835;28;20704;-71
2021/11/20 04:41:01;;;;;;;3.30;2.97;;;11.10;99.90;;;;;;5004990;28;20237;-72
2021/11/20 04:43:28;;;;;;;4.87;3.50;;;11.10;99.90;;;;;;5005352;28;20213;-71
2021/11/20 04:45:55;;;;;;;3.23;3.03;;;11.10;99.90;;;;;;5005036;28;20233;-72
2021/11/20 04:48:24;;;;;;;5.33;3.03;;;11.10;99.90;;;;;;5004892;28;20205;-72
2021/11/20 04:50:53;;;;;;;3.47;3.03;;;11.10;99.90;;;;;;5005522;28;20218;-72
2021/11/20 04:53:20;;;;;;;2.90;2.70;;;11.10;99.90;;;;;;5004931;28;20263;-72
2021/11/20 04:55:48;;;;;;;4.80;3.23;;;11.10;99.90;;;;;;5004781;28;20248;-71
2021/11/20 04:58:16;;;;;;;5.37;2.90;;;11.10;99.90;;;;;;5004836;28;20292;-72
2021/11/20 05:00:47;;;;;;;3.03;2.83;;;11.10;99.90;;;;;;5006167;28;20241;-72
2021/11/20 05:03:15;;;;;;;4.17;3.03;;;11.10;99.90;;;;;;5007573;28;20984;-72
2021/11/20 05:05:46;;;;;;;3.53;3.20;;;11.10;99.90;;;;;;5007856;28;20238;-72
2021/11/20 05:08:13;;;;;;;3.00;2.80;;;11.10;99.90;;;;;;5008197;28;20275;-73
2021/11/20 05:10:41;;;;;;;4.83;3.10;;;11.10;99.90;;;;;;5007801;28;20710;-73
2021/11/20 05:13:09;;;;;;;2.87;2.67;;;11.10;99.90;;;;;;5008028;28;20201;-73
2021/11/20 05:15:39;;;;;;;3.30;3.00;;;11.10;99.90;;;;;;5008007;28;20212;-71
2021/11/20 05:18:06;;;;;;;8.00;3.10;;;11.10;99.90;;;;;;5008074;28;20292;-71
2021/11/20 05:20:34;;;;;;;3.17;2.87;;;11.10;99.90;;;;;;5007848;28;20289;-71
2021/11/20 05:23:02;;;;;;;3.70;2.90;;;11.10;99.90;;;;;;5007709;28;20251;-71
2021/11/20 05:25:29;;;;;;;2.80;2.60;;;11.10;99.90;;;;;;5007785;28;20281;-71
2021/11/20 05:27:56;;;;;;;2.80;2.60;;;11.10;99.90;;;;;;5007375;28;20680;-72
2021/11/20 05:30:28;;;;;;;3.73;2.60;;;11.10;99.90;;;;;;5007466;28;20205;-72
2021/11/20 05:32:56;;;;;;;2.37;1.93;;;11.10;99.90;;;;;;5007386;28;20605;-72
2021/11/20 05:35:25;;;;;;;4.23;2.40;;;11.10;99.90;;;;;;5007581;28;20296;-72
2021/11/20 05:37:52;;;;;;;2.60;2.37;;;11.10;99.90;;;;;;5007738;28;20213;-73
2021/11/20 05:40:21;;;;;;;2.93;2.47;;;11.10;99.90;;;;;;5007577;28;20289;-73
2021/11/20 05:42:50;;;;;;;2.50;2.30;;;11.10;99.90;;;;;;5007379;28;20904;-74
2021/11/20 05:45:23;;;;;;;3.23;2.53;;;11.10;99.90;;;;;;5007606;28;20237;-74
2021/11/20 05:47:50;;;;;;;4.07;2.40;;;11.10;99.90;;;;;;5007384;28;20198;-72
2021/11/20 05:50:24;;;;;;;3.77;2.37;;;11.10;99.90;;;;;;5007509;28;20241;-72
2021/11/20 05:52:52;;;;;;;5.17;2.40;;;11.10;99.90;;;;;;5007408;28;20646;-72
2021/11/20 05:55:23;;;;;;;2.83;2.50;;;11.10;99.90;;;;;;5007573;28;20266;-73
2021/11/20 05:57:50;;;;;;;2.70;2.50;;;11.20;99.90;;;;;;5007433;28;20225;-73
2021/11/20 06:00:19;;;;;;;4.93;2.40;;;11.20;99.90;;;;;;5006928;28;20782;-73
2021/11/20 06:02:46;;;;;;;5.00;2.33;;;11.20;99.90;;;;;;5007228;28;20255;-73
2021/11/20 06:05:14;;;;;;;2.37;2.20;;;11.20;99.90;;;;;;5007271;28;20237;-73
2021/11/20 06:07:40;;;;;;;2.67;2.20;;;11.10;99.90;;;;;;5007402;28;20300;-73
2021/11/20 06:10:08;;;;;;;2.77;2.40;;;11.10;99.90;;;;;;5006822;28;20751;-73
2021/11/20 06:12:36;;;;;;;5.20;2.77;;;11.10;99.90;;;;;;5006143;28;20215;-72
2021/11/20 06:15:04;;;;;;;2.23;2.13;;;11.10;99.90;;;;;;5007410;28;20300;-73
2021/11/20 06:17:31;;;;;;;4.57;3.17;;;11.10;99.90;;;;;;5007127;28;20282;-73
2021/11/20 06:19:58;;;;;;;3.03;2.83;;;11.10;99.90;;;;;;5006610;28;20288;-72
2021/11/20 06:22:26;;;;;;;4.33;3.00;;;11.10;99.90;;;;;;5006578;28;20300;-73
2021/11/20 06:24:53;;;;;;;3.47;2.67;;;11.00;99.90;;;;;;5006865;28;20594;-73
2021/11/20 06:27:20;;;;;;;3.60;3.30;;;11.00;99.90;;;;;;5006701;28;20237;-73
2021/11/20 06:29:48;;;;;;;3.93;3.27;;;11.00;99.90;;;;;;5006838;28;20233;-74
2021/11/20 06:32:15;;;;;;;5.47;3.50;;;11.00;99.90;;;;;;5006378;28;20256;-73
2021/11/20 06:34:42;;;;;;;5.63;3.70;;;10.90;99.90;;;;;;5006592;28;20270;-72
2021/11/20 06:37:09;;;;;;;3.97;3.60;;;10.90;99.90;;;;;;5006295;28;20375;-72
2021/11/20 06:39:38;;;;;;;3.73;3.40;;;10.80;99.90;;;;;;5006463;28;20211;-72
2021/11/20 06:42:06;;;;;;;4.70;4.10;;;10.80;99.90;;;;;;5005935;28;20226;-70
2021/11/20 06:44:33;;;;;;;4.63;4.17;;;10.80;99.90;;;;;;5006689;28;20266;-71
2021/11/20 06:47:02;;;;;;;6.43;4.60;;;10.80;99.90;;;;;;5006364;28;20301;-71
2021/11/20 06:49:29;;;;;;;5.17;4.67;;;10.80;99.90;;;;;;5006393;28;20271;-71
2021/11/20 06:51:56;;;;;;;4.60;4.30;;;10.80;99.90;;;;;;5008177;28;20243;-71
2021/11/20 06:54:24;;;;;;;5.30;4.30;;;10.80;99.90;;;;;;5008689;28;20688;-71
2021/11/20 06:56:53;;;;;;;4.40;4.10;;;10.80;99.90;;;;;;5003029;28;20213;-71
2021/11/20 07:02:04;;;;;;;6.30;4.50;;;10.70;99.90;;;;;;5054288;28;20702;-71
2021/11/20 07:04:32;;;;;;;5.60;4.47;;;10.70;99.90;;;;;;5021797;28;20240;-71
2021/11/20 07:07:01;;;;;;;9.03;5.33;;;10.70;99.90;;;;;;5022655;28;20344;-72
2021/11/20 07:09:29;;;;;;;4.87;4.47;;;10.70;99.90;;;;;;5018014;28;20730;-72
2021/11/20 07:11:59;;;;;;;6.20;4.73;;;10.70;99.90;;;;;;5003356;28;20599;-71
2021/11/20 07:14:26;;;;;;;5.10;4.60;;;10.80;99.90;;;;;;5005930;28;20202;-72
2021/11/20 07:16:54;;;;;;;5.00;4.50;;;10.80;99.90;;;;;;5009643;28;20240;-71
2021/11/20 07:19:22;;;;;;;5.37;4.87;;;10.80;99.90;;;;;;5024997;28;20233;-71
2021/11/20 07:21:49;;;;;;;6.60;4.87;;;10.70;99.90;;;;;;5025606;28;20205;-71
2021/11/20 07:24:19;;;;;;;5.53;5.00;;;10.70;99.90;;;;;;5025005;28;20282;-71
2021/11/20 07:26:47;;;;;;;7.77;4.80;;;10.70;99.90;;;;;;5025551;28;20323;-71
2021/11/20 07:29:15;;;;;;;9.67;5.43;;;10.70;99.90;;;;;;5025817;28;20212;-71
2021/11/20 07:31:42;;;;;;;7.47;4.90;;;10.70;99.90;;;;;;5042683;28;20295;-71
2021/11/20 07:34:09;;;;;;;6.90;5.43;;;10.70;99.90;;;;;;5044264;28;20295;-71
2021/11/20 07:36:38;;;;;;;5.97;5.23;;;10.70;99.90;;;;;;5044271;28;20307;-71
2021/11/20 07:39:07;;;;;;;7.23;5.43;;;10.70;99.90;;;;;;5044768;28;20239;-71
2021/11/20 07:41:34;;;;;;;5.90;5.03;;;10.70;99.90;;;;;;5045353;28;20263;-71
2021/11/20 07:44:02;;;;;;;6.60;5.57;;;10.60;99.90;;;;;;5045094;28;20291;-71
2021/11/20 07:46:29;;;;;;;11.23;5.77;;;10.60;99.90;;;;;;5045058;28;20405;-71
2021/11/20 07:48:57;;;;;;;6.57;5.97;;;10.60;99.90;;;;;;5045083;28;20204;-71
2021/11/20 07:51:25;;;;;;;8.77;6.83;;;10.60;99.90;;;;;;5045398;28;20243;-71
2021/11/20 07:53:54;;;;;;;7.17;6.43;;;10.60;99.90;;;;;;5045060;28;20212;-71
2021/11/20 07:56:21;;;;;;;9.13;6.73;;;10.60;99.90;;;;;;5045059;28;20196;-71
2021/11/20 07:58:50;;;;;;;9.97;7.37;;;10.60;99.90;;;;;;5045177;28;20209;-71
2021/11/20 08:01:17;;;;;;;9.77;7.37;;;10.60;99.90;;;;;;5044716;27;20698;-71
2021/11/20 08:03:44;;;;;;;10.03;7.63;;;10.60;99.90;;;;;;5045085;28;20244;-71
2021/11/20 08:06:11;;;;;;;16.77;8.63;;;10.60;99.90;;;;;;5044441;28;20327;-71
2021/11/20 08:08:38;;;;;;;10.87;7.33;;;10.70;99.90;;;;;;5045165;28;20242;-71
2021/11/20 08:11:07;;;;;;;10.90;8.00;;;10.70;99.90;;;;;;5045048;28;20261;-71
2021/11/20 08:13:35;;;;;;;10.43;7.40;;;10.70;99.90;;;;;;5044514;28;20303;-71
2021/11/20 08:16:03;;;;;;;10.03;7.63;;;10.70;99.90;;;;;;5044831;28;20211;-71
2021/11/20 08:18:29;;;;;;;11.97;6.70;;;10.70;99.90;;;;;;5044647;28;20303;-71
2021/11/20 08:20:58;;;;;;;12.83;7.03;;;10.70;99.90;;;;;;5044771;28;20257;-71
2021/11/20 08:23:25;;;;;;;8.07;6.67;;;10.80;99.90;;;;;;5044924;28;20224;-71
2021/11/20 08:25:52;;;;;;;10.43;6.53;;;10.80;99.90;;;;;;5044879;28;20228;-71
2021/11/20 08:28:21;;;;;;;8.97;6.47;;;10.80;99.90;;;;;;5044575;28;20680;-71
2021/11/20 08:30:49;;;;;;;11.20;6.60;;;10.80;99.90;;;;;;5044719;28;20204;-71
2021/11/20 08:33:17;;;;;;;8.03;6.20;;;10.80;99.90;;;;;;5044536;28;20205;-71
2021/11/20 08:35:44;;;;;;;6.97;5.73;;;10.90;99.90;;;;;;5046396;28;20248;-71
2021/11/20 08:38:14;;;;;;;9.17;6.17;;;10.90;99.90;;;;;;5048151;27;20303;-71
2021/11/20 08:40:42;;;;;;;8.27;6.20;;;10.90;99.90;;;;;;5048299;28;20315;-71
2021/11/20 08:43:09;;;;;;;8.83;5.57;;;11.00;99.90;;;;;;5048143;28;20633;-71
2021/11/20 08:45:40;;;;;;;7.30;6.03;;;11.00;99.90;;;;;;5047835;28;20224;-71
2021/11/20 08:48:08;;;;;;;10.40;5.90;;;11.00;99.90;;;;;;5048045;28;20269;-71
2021/11/20 08:50:37;;;;;;;7.73;6.10;;;11.10;99.90;;;;;;5048308;27;20204;-71
2021/11/20 08:53:05;;;;;;;9.93;6.13;;;11.10;99.90;;;;;;5047670;27;20686;-71
2021/11/20 08:55:32;;;;;;;9.03;5.53;;;11.10;99.90;;;;;;5047642;28;20240;-71
2021/11/20 08:58:00;;;;;;;9.93;5.97;;;11.10;99.90;;;;;;5047547;28;20299;-71
2021/11/20 09:00:30;;;;;;;7.53;5.73;;;11.10;99.90;;;;;;5047742;28;20292;-70
2021/11/20 09:03:06;;;;;;;7.67;5.60;;;11.20;99.90;;;;;;5047669;28;20277;-71
2021/11/20 09:05:37;;;;;;;7.93;5.90;;;11.20;99.90;;;;;;5047358;28;20736;-70
2021/11/20 09:08:06;;;;;;;9.37;5.13;;;11.20;99.90;;;;;;5047524;28;20255;-71
2021/11/20 09:10:45;;;;;;;7.17;5.40;;;11.20;99.90;;;;;;5047817;28;20676;-71
2021/11/20 09:13:15;;;;;;;7.67;4.87;;;11.20;99.90;;;;;;5028555;28;20228;-71
2021/11/20 09:15:45;;;;;;;8.73;5.13;;;11.20;99.90;;;;;;5027316;28;20212;-71
2021/11/20 09:18:14;;;;;;;9.83;5.07;;;11.20;99.90;;;;;;5027747;28;20284;-71
2021/11/20 09:20:41;;;;;;;7.30;5.50;;;11.30;99.90;;;;;;5027617;28;20236;-71
2021/11/20 09:23:08;;;;;;;8.70;4.83;;;11.30;99.90;;;;;;5027659;28;20312;-71
2021/11/20 09:25:36;;;;;;;4.97;4.47;;;11.30;99.90;;;;;;5027193;28;20296;-71
2021/11/20 09:28:12;;;;;;;7.23;4.60;;;11.30;99.90;;;;;;5027403;28;20289;-71
2021/11/20 09:30:42;;;;;;;7.67;4.30;;;11.30;99.90;;;;;;5027237;28;20651;-71
2021/11/20 09:33:09;;;;;;;7.53;4.47;;;11.40;99.90;;;;;;5027293;28;20295;-71
2021/11/20 09:35:38;;;;;;;5.67;4.77;;;11.30;99.90;;;;;;5027170;28;20248;-71
2021/11/20 09:38:06;;;;;;;6.43;4.13;;;11.40;99.90;;;;;;5026761;28;20735;-71
2021/11/20 09:40:37;;;;;;;6.80;4.13;;;11.40;99.90;;;;;;5027136;28;20274;-71
2021/11/20 09:43:05;;;;;;;4.93;3.83;;;11.40;99.90;;;;;;5027362;28;20209;-71
2021/11/20 09:45:35;;;;;;;5.57;4.10;;;11.40;99.90;;;;;;5027429;28;20232;-71
2021/11/20 09:48:14;;;;;;;7.20;4.00;;;11.40;99.90;;;;;;5026796;28;20311;-70
2021/11/20 09:50:47;;;;;;;4.57;3.70;;;11.40;99.90;;;;;;5027274;28;20272;-71
2021/11/20 09:53:15;;;;;;;5.07;3.97;;;11.50;99.90;;;;;;5027077;28;20225;-71
2021/11/20 09:55:46;;;;;;;6.07;4.00;;;11.50;99.90;;;;;;5026864;28;20685;-71
2021/11/20 09:58:17;;;;;;;3.77;3.43;;;11.50;99.90;;;;;;5026959;28;20288;-71
2021/11/20 10:01:16;;;;;;;4.57;4.20;;;11.50;99.90;;;;;;5026962;28;20261;-71
2021/11/20 10:03:47;;;;;;;5.57;4.20;;;11.50;99.90;;;;;;5026751;28;20308;-71
2021/11/20 10:06:27;;;;;;;6.53;3.67;;;11.50;99.90;;;;;;5026783;28;20270;-71
2021/11/20 10:09:07;;;;;;;9.40;5.13;;;11.50;99.90;;;;;;5026827;28;20276;-71
2021/11/20 10:11:38;;;;;;;4.57;3.83;;;11.50;99.90;;;;;;5026867;28;20550;-71
2021/11/20 10:14:12;;;;;;;7.23;3.73;;;11.50;99.90;;;;;;5026706;28;20201;-71
2021/11/20 10:16:46;;;;;;;8.10;4.27;;;11.50;99.90;;;;;;5026870;28;20249;-71
2021/11/20 10:19:17;;;;;;;5.77;3.77;;;11.50;99.90;;;;;;5026246;28;20249;-71
2021/11/20 10:22:01;;;;;;;6.23;4.30;;;11.50;99.90;;;;;;5027002;28;20292;-71
2021/11/20 10:24:40;;;;;;;4.93;4.17;;;11.50;99.90;;;;;;5026433;28;20665;-71
2021/11/20 10:27:27;;;;;;;6.23;4.63;;;11.50;99.90;;;;;;5026507;28;20220;-71
2021/11/20 10:30:07;;;;;;;6.27;4.63;;;11.50;99.90;;;;;;5026874;28;20240;-71
2021/11/20 10:32:37;;;;;;;7.47;4.63;;;11.50;99.90;;;;;;5026644;28;20224;-71
2021/11/20 10:35:17;;;;;;;10.63;4.80;;;11.50;99.90;;;;;;5026063;28;20293;-71
2021/11/20 10:37:48;;;;;;;5.43;4.43;;;11.50;99.90;;;;;;5026574;28;20308;-71
2021/11/20 10:40:26;;;;;;;6.40;4.60;;;11.50;99.90;;;;;;5026087;28;20657;-71
2021/11/20 10:43:07;;;;;;;6.53;4.40;;;11.50;99.90;;;;;;5026436;28;20189;-71
2021/11/20 10:45:40;;;;;;;5.20;4.70;;;11.50;99.90;;;;;;5026238;28;20295;-71
2021/11/20 10:48:14;;;;;;;7.30;4.73;;;11.50;99.90;;;;;;5025987;28;20297;-71
2021/11/20 10:50:44;;;;;;;5.87;5.37;;;11.50;99.90;;;;;;5025901;28;20712;-71
2021/11/20 10:53:34;;;;;;;11.67;5.30;;;11.60;99.90;;;;;;5025858;28;20215;-71
2021/11/20 10:56:24;;;;;;;11.60;5.67;;;11.60;99.90;;;;;;5025861;28;20598;-71
2021/11/20 10:59:18;;;;;;;6.67;4.70;;;11.60;99.90;;;;;;5024965;28;20288;-71
2021/11/20 11:02:05;;;;;;;11.60;5.23;;;11.60;99.90;;;;;;5025600;28;20720;-71
2021/11/20 11:04:58;;;;;;;5.60;5.00;;;11.70;99.90;;;;;;5026053;28;20288;-71
2021/11/20 11:07:31;;;;;;;8.50;5.80;;;11.70;99.90;;;;;;5025918;28;20224;-71
2021/11/20 11:10:04;;;;;;;6.93;5.70;;;11.70;99.90;;;;;;5025869;28;20201;-71
2021/11/20 11:12:40;;;;;;;7.20;5.60;;;11.70;99.90;;;;;;5025759;28;20225;-71
2021/11/20 11:15:21;;;;;;;6.57;5.90;;;11.70;99.90;;;;;;5026118;28;20280;-71
2021/11/20 11:18:27;;;;;;;6.40;5.67;;;11.70;99.90;;;;;;5026025;28;20231;-71
2021/11/20 11:21:30;;;;;;;6.47;5.87;;;11.70;99.90;;;;;;5025646;28;20238;-71
2021/11/20 11:24:19;;;;;;;7.90;6.20;;;11.70;99.90;;;;;;5025789;28;20316;-71
2021/11/20 11:26:53;;;;;;;6.37;5.70;;;11.70;99.90;;;;;;5036280;28;20328;-71
2021/11/20 11:29:29;;;;;;;9.07;8.23;;;11.70;99.90;;;;;;5025514;28;20291;-71
2021/11/20 11:31:57;;;;;;;9.40;7.67;;;11.70;99.90;;;;;;5025379;28;20201;-71
2021/11/20 11:34:26;;;;;;;8.00;6.10;;;11.70;99.90;;;;;;5025672;28;20300;-71
2021/11/20 11:36:56;;;;;;;7.37;6.07;;;11.70;99.90;;;;;;5025645;28;20234;-71
2021/11/20 11:39:36;;;;;;;6.47;5.80;;;11.70;99.90;;;;;;5025352;28;20282;-71
2021/11/20 11:42:22;;;;;;;9.23;6.47;;;11.70;99.90;;;;;;5025673;28;20232;-71
2021/11/20 11:44:58;;;;;;;7.17;6.10;;;11.80;99.90;;;;;;5025084;28;20203;-71
2021/11/20 11:47:28;;;;;;;8.07;7.07;;;11.70;99.90;;;;;;5025128;28;20767;-71
2021/11/20 11:50:07;;;;;;;6.87;6.13;;;11.80;99.90;;;;;;5025579;28;20697;-71
2021/11/20 11:52:49;;;;;;;9.33;6.30;;;11.80;99.90;;;;;;5025227;28;20993;-71
2021/11/20 11:55:39;;;;;;;6.53;6.00;;;11.70;99.90;;;;;;5025571;28;20627;-71
2021/11/20 11:58:39;;;;;;;7.33;6.67;;;11.80;99.90;;;;;;5025143;28;20196;-71
2021/11/20 12:01:10;;;;;;;6.80;6.20;;;11.70;99.90;;;;;;5025063;28;20323;-71
2021/11/20 12:03:41;;;;;;;7.30;6.50;;;11.80;99.90;;;;;;5025170;28;20225;-71
2021/11/20 12:06:31;;;;;;;7.97;7.17;;;11.70;99.90;;;;;;5025213;28;20280;-71
2021/11/20 12:09:01;;;;;;;7.23;6.53;;;11.80;99.90;;;;;;5025018;28;20291;-71
2021/11/20 12:11:34;;;;;;;8.70;6.87;;;11.80;99.90;;;;;;5027930;28;20547;-71
2021/11/20 12:14:17;;;;;;;7.53;6.80;;;11.80;99.90;;;;;;5028290;28;20711;-71
2021/11/20 12:16:49;;;;;;;7.57;6.93;;;11.80;99.90;;;;;;5028521;28;20204;-71
2021/11/20 12:19:33;;;;;;;7.40;6.70;;;11.80;99.90;;;;;;5028549;28;20209;-71
2021/11/20 12:22:06;;;;;;;7.60;6.90;;;11.80;99.90;;;;;;5028717;28;20258;-71
2021/11/20 12:24:44;;;;;;;7.80;6.70;;;11.80;99.90;;;;;;5028793;28;20720;-71
2021/11/20 12:27:32;;;;;;;8.13;7.37;;;11.80;99.90;;;;;;5028233;28;20999;-71
2021/11/20 12:30:33;;;;;;;9.67;7.10;;;11.80;99.90;;;;;;5028512;28;20197;-71
2021/11/20 12:33:13;;;;;;;7.70;7.00;;;11.80;99.90;;;;;;5028689;28;20361;-71
2021/11/20 12:36:05;;;;;;;8.00;6.97;;;11.80;99.90;;;;;;5027854;28;20232;-71
2021/11/20 12:38:53;;;;;;;7.70;7.00;;;11.80;99.90;;;;;;5028269;28;20313;-71
2021/11/20 12:41:47;;;;;;;9.43;8.37;;;11.80;99.90;;;;;;5028248;28;20204;-71
2021/11/20 12:44:33;;;;;;;7.53;6.83;;;11.80;99.90;;;;;;5027911;28;20289;-71
2021/11/20 12:47:23;;;;;;;7.70;6.90;;;11.80;99.90;;;;;;5027705;28;20260;-71
2021/11/20 12:50:01;;;;;;;6.83;6.23;;;11.80;99.90;;;;;;5028091;28;20231;-71
2021/11/20 12:52:33;;;;;;;10.40;6.93;;;11.90;99.90;;;;;;5027952;28;20553;-71
2021/11/20 12:55:08;;;;;;;8.20;7.27;;;11.90;99.90;;;;;;5027787;28;20799;-71
2021/11/20 12:57:43;;;;;;;7.90;7.10;;;11.80;99.90;;;;;;5027779;28;20239;-71
2021/11/20 13:00:20;;;;;;;7.60;6.87;;;11.90;99.90;;;;;;5027603;28;21077;-71
2021/11/20 13:02:53;;;;;;;7.60;7.00;;;11.90;99.90;;;;;;5027287;28;20230;-71
2021/11/20 13:05:26;;;;;;;7.50;6.80;;;11.90;99.90;;;;;;5027438;28;20636;-71
2021/11/20 13:07:57;;;;;;;7.60;7.00;;;11.90;99.90;;;;;;5027407;28;20773;-71
2021/11/20 13:10:36;;;;;;;7.93;7.13;;;11.80;99.90;;;;;;5027853;28;20276;-71